Time;durP1;ratioP1;P1;durP2;ratioP2;P2;SDS_P1;SDS_P2;PMS_P1;PMS_P2;Temp;Humidity;BMP_temperature;BMP_pressure;BME280_temperature;BME280_humidity;BME280_pressure;Samples;Min_cycle;Max_cycle;Signal;HPM_P1;HPM_P2
2022/01/31 00:00:57;;;;;;;90.13;43.57;;;3.60;99.90;;;;;;5035580;28;20039;-73
2022/01/31 00:03:23;;;;;;;90.63;44.87;;;3.70;99.90;;;;;;5035562;28;20057;-73
2022/01/31 00:05:49;;;;;;;93.23;44.27;;;3.70;99.90;;;;;;5052778;28;20243;-78
2022/01/31 00:08:21;;;;;;;95.27;44.63;;;3.70;99.90;;;;;;5033759;28;20116;-78
2022/01/31 00:10:47;;;;;;;84.45;41.60;;;3.70;99.90;;;;;;5032542;28;20483;-78
2022/01/31 00:13:18;;;;;;;91.00;43.23;;;3.70;99.90;;;;;;5032693;28;20021;-78
2022/01/31 00:15:52;;;;;;;85.90;41.65;;;3.70;99.90;;;;;;5050482;28;20025;-78
2022/01/31 00:18:17;;;;;;;87.27;41.10;;;3.60;99.90;;;;;;5048247;28;20091;-78
2022/01/31 00:20:43;;;;;;;86.83;41.47;;;3.60;99.90;;;;;;5050399;28;20028;-78
2022/01/31 00:23:09;;;;;;;87.13;40.83;;;3.60;99.90;;;;;;5050894;28;20506;-78
2022/01/31 00:25:34;;;;;;;86.27;41.03;;;3.60;99.90;;;;;;5052231;28;20022;-78
2022/01/31 00:28:00;;;;;;;80.73;41.47;;;3.70;99.90;;;;;;5051550;28;20044;-78
2022/01/31 00:30:26;;;;;;;86.20;40.13;;;3.70;99.90;;;;;;5034192;28;20028;-78
2022/01/31 00:32:52;;;;;;;83.77;40.87;;;3.60;99.90;;;;;;5052232;28;20505;-78
2022/01/31 00:35:17;;;;;;;84.70;39.77;;;3.60;99.90;;;;;;5051962;28;20029;-77
2022/01/31 00:37:43;;;;;;;83.07;39.80;;;3.60;99.90;;;;;;5033934;28;20502;-78
2022/01/31 00:40:10;;;;;;;79.07;38.10;;;3.60;99.90;;;;;;5051955;28;20028;-77
2022/01/31 00:42:36;;;;;;;83.77;39.07;;;3.60;99.90;;;;;;5051846;28;20029;-78
2022/01/31 00:45:20;;;;;;;83.17;39.70;;;3.60;99.90;;;;;;5050763;28;20467;-78
2022/01/31 00:47:50;;;;;;;80.73;38.03;;;3.70;99.90;;;;;;5034083;28;20021;-78
2022/01/31 00:50:18;;;;;;;81.67;37.53;;;3.70;99.90;;;;;;5051911;28;20031;-77
2022/01/31 00:52:45;;;;;;;78.53;36.60;;;3.80;99.90;;;;;;5052946;28;20028;-78
2022/01/31 00:55:12;;;;;;;76.17;36.40;;;3.80;99.90;;;;;;5052934;28;20025;-78
2022/01/31 00:57:40;;;;;;;76.83;36.60;;;3.80;99.90;;;;;;5052804;28;20085;-78
2022/01/31 01:00:07;;;;;;;78.37;36.47;;;3.80;99.90;;;;;;5052799;28;20599;-77
2022/01/31 01:02:33;;;;;;;79.13;36.57;;;3.70;99.90;;;;;;5052669;28;20021;-77
2022/01/31 01:04:58;;;;;;;76.33;36.67;;;3.80;99.90;;;;;;5052850;28;20029;-78
2022/01/31 01:07:24;;;;;;;77.30;36.20;;;3.80;99.90;;;;;;5052805;28;20029;-78
2022/01/31 01:09:50;;;;;;;78.80;37.03;;;3.80;99.90;;;;;;5052634;28;20486;-78
2022/01/31 01:12:17;;;;;;;75.63;35.07;;;3.80;99.90;;;;;;5034954;28;20029;-78
2022/01/31 01:14:44;;;;;;;76.53;36.43;;;3.80;99.90;;;;;;5052433;28;20077;-78
2022/01/31 01:17:10;;;;;;;78.43;36.40;;;3.90;99.90;;;;;;5063780;28;20049;-78
2022/01/31 01:19:36;;;;;;;74.80;33.10;;;3.80;99.90;;;;;;5072849;28;20363;-78
2022/01/31 01:22:02;;;;;;;73.47;33.13;;;3.80;99.90;;;;;;5054862;28;20028;-78
2022/01/31 01:24:28;;;;;;;68.77;31.90;;;3.80;99.90;;;;;;5072639;28;20024;-77
2022/01/31 01:26:54;;;;;;;69.97;32.50;;;3.80;99.90;;;;;;5072568;28;20208;-77
2022/01/31 01:29:20;;;;;;;72.07;32.97;;;3.80;99.90;;;;;;5072134;28;20025;-78
2022/01/31 01:31:48;;;;;;;65.73;30.80;;;3.80;99.90;;;;;;5071874;28;20024;-77
2022/01/31 01:34:16;;;;;;;74.10;33.77;;;3.90;99.90;;;;;;5071607;28;20075;-78
2022/01/31 01:36:43;;;;;;;60.33;30.27;;;3.90;99.90;;;;;;5053471;28;20059;-77
2022/01/31 01:39:10;;;;;;;63.00;28.83;;;3.80;99.90;;;;;;5053527;28;20040;-78
2022/01/31 01:41:36;;;;;;;61.77;29.00;;;3.80;99.90;;;;;;5071544;28;20391;-77
2022/01/31 01:44:02;;;;;;;62.53;30.37;;;3.80;99.90;;;;;;5071382;28;20387;-78
2022/01/31 01:46:28;;;;;;;63.20;29.17;;;3.80;99.90;;;;;;5071224;28;20024;-77
2022/01/31 01:48:54;;;;;;;61.47;28.73;;;3.80;99.90;;;;;;5071433;28;20514;-78
2022/01/31 01:51:20;;;;;;;60.07;28.20;;;3.80;99.90;;;;;;5071217;28;20013;-78
2022/01/31 01:53:45;;;;;;;57.80;28.20;;;3.80;99.90;;;;;;5071224;28;20031;-77
2022/01/31 01:56:13;;;;;;;57.77;26.97;;;3.80;99.90;;;;;;5073093;28;20023;-77
2022/01/31 01:58:42;;;;;;;64.30;29.27;;;3.80;99.90;;;;;;5075074;28;20474;-77
2022/01/31 02:01:10;;;;;;;63.43;28.50;;;3.80;99.90;;;;;;5074900;28;20474;-77
2022/01/31 02:03:39;;;;;;;59.17;27.03;;;3.70;99.90;;;;;;5067041;28;20028;-77
2022/01/31 02:06:06;;;;;;;58.00;26.27;;;3.70;99.90;;;;;;5074940;28;20021;-78
2022/01/31 02:08:40;;;;;;;60.37;26.50;;;3.70;99.90;;;;;;5057008;28;20027;-77
2022/01/31 02:11:08;;;;;;;50.03;23.87;;;3.70;99.90;;;;;;5075067;28;20413;-77
2022/01/31 02:13:36;;;;;;;61.57;25.30;;;3.70;99.90;;;;;;5074907;28;20028;-77
2022/01/31 02:16:03;;;;;;;51.57;24.23;;;3.70;99.90;;;;;;5074510;28;20082;-77
2022/01/31 02:18:30;;;;;;;56.90;26.10;;;3.70;99.90;;;;;;5074723;28;20035;-78
2022/01/31 02:20:56;;;;;;;57.83;25.70;;;3.60;99.90;;;;;;5056646;28;20043;-77
2022/01/31 02:23:23;;;;;;;56.73;23.73;;;3.60;99.90;;;;;;5056669;28;20115;-77
2022/01/31 02:25:57;;;;;;;54.00;25.03;;;3.60;99.90;;;;;;5074455;28;20104;-77
2022/01/31 02:28:25;;;;;;;51.90;24.97;;;3.60;99.90;;;;;;5074474;28;20469;-77
2022/01/31 02:30:51;;;;;;;50.43;24.23;;;3.60;99.90;;;;;;5074436;28;20030;-78
2022/01/31 02:33:18;;;;;;;52.07;24.43;;;3.50;99.90;;;;;;5056444;28;20032;-77
2022/01/31 02:35:49;;;;;;;52.13;23.93;;;3.50;99.90;;;;;;5074387;28;20508;-77
2022/01/31 02:38:15;;;;;;;48.73;22.07;;;3.50;99.90;;;;;;5070977;28;20032;-77
2022/01/31 02:40:41;;;;;;;51.83;23.13;;;3.50;99.90;;;;;;5074150;28;20120;-77
2022/01/31 02:43:07;;;;;;;52.03;22.87;;;3.50;99.90;;;;;;5074262;28;20051;-78
2022/01/31 02:45:32;;;;;;;53.13;24.43;;;3.50;99.90;;;;;;5074319;28;20031;-78
2022/01/31 02:48:00;;;;;;;53.50;24.27;;;3.50;99.90;;;;;;5068208;28;20025;-77
2022/01/31 02:50:27;;;;;;;50.17;24.17;;;3.50;99.90;;;;;;5074621;28;20031;-78
2022/01/31 02:55:42;;;;;;;49.33;21.17;;;3.40;99.90;;;;;;5074507;28;20029;-77
2022/01/31 02:58:11;;;;;;;50.38;23.73;;;3.40;99.90;;;;;;5074083;28;20110;-77
2022/01/31 03:00:38;;;;;;;48.03;22.17;;;3.40;99.90;;;;;;5073884;28;20029;-77
2022/01/31 03:03:05;;;;;;;43.30;21.03;;;3.40;99.90;;;;;;5073684;28;20482;-77
2022/01/31 03:05:31;;;;;;;47.53;21.43;;;3.40;99.90;;;;;;5073891;28;20443;-77
2022/01/31 03:07:57;;;;;;;46.37;20.03;;;3.30;99.90;;;;;;5072747;28;20471;-77
2022/01/31 03:10:23;;;;;;;45.97;20.73;;;3.40;99.90;;;;;;5055656;28;20031;-77
2022/01/31 03:12:49;;;;;;;47.53;20.40;;;3.40;99.90;;;;;;5073688;28;20032;-77
2022/01/31 03:15:14;;;;;;;48.47;20.97;;;3.40;99.90;;;;;;5073403;28;20032;-77
2022/01/31 03:17:42;;;;;;;43.43;19.50;;;3.40;99.90;;;;;;5073426;28;20044;-77
2022/01/31 03:20:08;;;;;;;45.03;19.80;;;3.40;99.90;;;;;;5073541;28;20033;-77
2022/01/31 03:22:34;;;;;;;45.57;20.73;;;3.40;99.90;;;;;;5073606;28;20402;-77
2022/01/31 03:25:00;;;;;;;40.30;17.33;;;3.40;99.90;;;;;;5073320;28;20176;-77
2022/01/31 03:27:25;;;;;;;45.17;20.10;;;3.40;99.90;;;;;;5055520;28;20043;-77
2022/01/31 03:29:51;;;;;;;44.67;18.43;;;3.40;99.90;;;;;;5073334;28;20029;-78
2022/01/31 03:32:17;;;;;;;46.10;20.53;;;3.40;99.90;;;;;;5073297;28;20025;-78
2022/01/31 03:34:42;;;;;;;44.60;20.13;;;3.40;99.90;;;;;;5073397;28;20028;-77
2022/01/31 03:37:08;;;;;;;38.73;17.47;;;3.50;99.90;;;;;;5055184;28;20085;-77
2022/01/31 03:39:34;;;;;;;45.63;18.33;;;3.50;99.90;;;;;;5052608;28;20500;-78
2022/01/31 03:42:00;;;;;;;46.13;19.33;;;3.50;99.90;;;;;;5035299;28;20116;-78
2022/01/31 03:44:26;;;;;;;44.53;17.70;;;3.50;99.90;;;;;;5035069;28;20021;-77
2022/01/31 03:46:52;;;;;;;40.27;18.03;;;3.50;99.90;;;;;;5053015;28;20552;-77
2022/01/31 03:49:17;;;;;;;42.50;18.97;;;3.50;99.90;;;;;;5053132;28;20056;-78
2022/01/31 03:51:43;;;;;;;40.03;17.60;;;3.50;99.90;;;;;;5034977;28;20415;-78
2022/01/31 03:54:09;;;;;;;39.43;17.67;;;3.50;99.90;;;;;;5034924;28;20033;-77
2022/01/31 03:56:35;;;;;;;38.77;18.17;;;3.50;99.90;;;;;;5052747;28;20057;-77
2022/01/31 03:59:02;;;;;;;40.80;17.57;;;3.50;99.90;;;;;;5034637;28;20029;-78
2022/01/31 04:01:28;;;;;;;37.50;17.80;;;3.50;99.90;;;;;;5052631;28;20082;-78
2022/01/31 04:03:53;;;;;;;36.90;17.13;;;3.50;99.90;;;;;;5052804;28;20103;-78
2022/01/31 04:06:19;;;;;;;37.97;18.00;;;3.50;99.90;;;;;;5052559;28;20025;-77
2022/01/31 04:08:45;;;;;;;40.93;19.40;;;3.50;99.90;;;;;;5052645;28;20021;-77
2022/01/31 04:11:11;;;;;;;44.13;18.80;;;3.40;99.90;;;;;;5067946;28;20025;-78
2022/01/31 04:13:37;;;;;;;41.93;19.43;;;3.40;99.90;;;;;;5072422;28;20025;-77
2022/01/31 04:16:03;;;;;;;44.20;19.10;;;3.30;99.90;;;;;;5072145;28;20074;-78
2022/01/31 04:18:29;;;;;;;38.93;18.20;;;3.30;99.90;;;;;;5091684;28;20097;-77
2022/01/31 04:20:55;;;;;;;45.73;20.23;;;3.30;99.90;;;;;;5092431;28;20477;-78
2022/01/31 04:23:23;;;;;;;42.77;19.70;;;3.30;99.90;;;;;;5092653;28;20465;-77
2022/01/31 04:30:53;;;;;;;47.80;18.77;;;3.30;99.90;;;;;;5072995;28;20086;-78
2022/01/31 04:33:19;;;;;;;41.10;19.47;;;3.30;99.90;;;;;;5054139;28;20032;-78
2022/01/31 04:35:46;;;;;;;42.67;18.10;;;3.30;99.90;;;;;;5071910;28;20090;-78
2022/01/31 04:38:11;;;;;;;42.40;18.83;;;3.40;99.90;;;;;;5071952;28;20035;-78
2022/01/31 04:40:37;;;;;;;39.47;17.53;;;3.30;99.90;;;;;;5082982;28;20111;-78
2022/01/31 04:43:03;;;;;;;40.03;17.77;;;3.40;99.90;;;;;;5092099;28;20027;-78
2022/01/31 04:45:29;;;;;;;38.53;16.37;;;3.40;99.90;;;;;;5092167;28;20104;-77
2022/01/31 04:47:55;;;;;;;41.00;17.13;;;3.40;99.90;;;;;;5073924;28;20031;-78
2022/01/31 04:50:20;;;;;;;40.53;17.90;;;3.40;99.90;;;;;;5092026;28;20055;-77
2022/01/31 04:52:46;;;;;;;37.40;17.17;;;3.40;99.90;;;;;;5090793;28;20477;-78
2022/01/31 04:55:12;;;;;;;39.97;17.83;;;3.40;99.90;;;;;;5091805;28;20016;-78
2022/01/31 04:57:38;;;;;;;38.87;16.73;;;3.30;99.90;;;;;;5073685;28;20020;-77
2022/01/31 05:00:07;;;;;;;37.43;17.13;;;3.40;99.90;;;;;;5091987;28;20057;-78
2022/01/31 05:02:33;;;;;;;38.03;16.60;;;3.40;99.90;;;;;;5087953;28;20021;-78
2022/01/31 05:04:59;;;;;;;36.90;17.33;;;3.50;99.90;;;;;;5071387;28;20023;-77
2022/01/31 05:07:25;;;;;;;44.13;18.20;;;3.50;99.90;;;;;;5053506;28;20021;-78
2022/01/31 05:09:51;;;;;;;40.97;17.93;;;3.50;99.90;;;;;;5071622;28;20394;-77
2022/01/31 05:12:17;;;;;;;40.97;17.97;;;3.50;99.90;;;;;;5071338;28;20036;-77
2022/01/31 05:14:42;;;;;;;41.33;17.60;;;3.60;99.90;;;;;;5071633;28;20132;-77
2022/01/31 05:17:08;;;;;;;41.00;17.93;;;3.60;99.90;;;;;;5071360;28;20052;-77
2022/01/31 05:19:34;;;;;;;44.57;19.13;;;3.60;99.90;;;;;;5071336;28;20031;-78
2022/01/31 05:22:03;;;;;;;40.23;17.50;;;3.70;99.90;;;;;;5071468;28;20395;-77
2022/01/31 05:24:29;;;;;;;43.40;19.13;;;3.70;99.90;;;;;;5053565;28;20028;-78
2022/01/31 05:26:55;;;;;;;43.77;20.37;;;3.70;99.90;;;;;;5053254;28;20016;-77
2022/01/31 05:29:21;;;;;;;50.57;19.63;;;3.70;99.90;;;;;;5071189;28;20029;-77
2022/01/31 05:31:48;;;;;;;43.27;18.40;;;3.60;99.90;;;;;;5074298;28;20028;-78
2022/01/31 05:34:17;;;;;;;47.43;19.03;;;3.70;99.90;;;;;;5075515;28;20115;-78
2022/01/31 05:36:43;;;;;;;43.67;18.60;;;3.70;99.90;;;;;;5075196;28;20032;-78
2022/01/31 05:39:09;;;;;;;44.60;19.43;;;3.70;99.90;;;;;;5057410;28;20028;-78
2022/01/31 05:41:35;;;;;;;46.63;19.93;;;3.70;99.90;;;;;;5056191;28;20063;-78
2022/01/31 05:44:01;;;;;;;44.60;19.17;;;3.70;99.90;;;;;;5055412;28;20021;-77
2022/01/31 05:46:26;;;;;;;50.53;20.33;;;3.70;99.90;;;;;;5053876;28;20021;-77
2022/01/31 05:48:53;;;;;;;51.83;21.70;;;3.70;99.90;;;;;;5055302;28;20086;-77
2022/01/31 05:51:21;;;;;;;50.80;20.47;;;3.70;99.90;;;;;;5055099;28;20096;-77
2022/01/31 05:53:49;;;;;;;48.67;20.67;;;3.70;99.90;;;;;;5055236;28;20044;-78
2022/01/31 05:56:16;;;;;;;56.00;22.80;;;3.60;99.90;;;;;;5055080;28;20090;-77
2022/01/31 05:58:43;;;;;;;55.90;22.17;;;3.70;99.90;;;;;;5037146;28;20025;-77
2022/01/31 06:01:09;;;;;;;51.50;22.17;;;3.70;99.90;;;;;;5037086;28;20029;-78
2022/01/31 06:03:35;;;;;;;60.77;23.70;;;3.70;99.90;;;;;;5037119;28;20031;-78
2022/01/31 06:06:01;;;;;;;53.00;22.53;;;3.70;99.90;;;;;;5054277;28;20025;-77
2022/01/31 06:08:27;;;;;;;50.33;21.97;;;3.70;99.90;;;;;;5055226;28;20488;-77
2022/01/31 06:10:53;;;;;;;50.67;21.90;;;3.70;99.90;;;;;;5060838;28;20086;-78
2022/01/31 06:13:25;;;;;;;52.03;21.27;;;3.70;99.90;;;;;;5056772;28;20029;-78
2022/01/31 06:15:51;;;;;;;58.00;23.27;;;3.70;99.90;;;;;;5074413;28;20024;-77
2022/01/31 06:18:18;;;;;;;55.07;23.63;;;3.70;99.90;;;;;;5056820;28;20029;-77
2022/01/31 06:20:46;;;;;;;53.67;22.97;;;3.70;99.90;;;;;;5074496;28;20024;-78
2022/01/31 06:23:13;;;;;;;59.40;23.70;;;3.80;99.90;;;;;;5074739;28;20024;-73
2022/01/31 06:25:39;;;;;;;58.97;24.17;;;3.80;99.90;;;;;;5056324;28;20025;-74
2022/01/31 06:28:06;;;;;;;61.17;24.70;;;3.80;99.90;;;;;;5074330;28;20086;-73
2022/01/31 06:30:33;;;;;;;61.33;24.50;;;3.80;99.90;;;;;;5074517;28;20070;-73
2022/01/31 06:32:59;;;;;;;62.77;24.40;;;3.80;99.90;;;;;;5074280;28;20033;-73
2022/01/31 06:35:25;;;;;;;56.60;23.90;;;3.80;99.90;;;;;;5072811;28;20393;-74
2022/01/31 06:37:54;;;;;;;58.00;23.93;;;3.90;99.90;;;;;;5072268;28;20020;-74
2022/01/31 06:40:19;;;;;;;59.87;23.93;;;3.90;99.90;;;;;;5070677;28;20094;-73
2022/01/31 06:42:46;;;;;;;60.93;24.53;;;3.90;99.90;;;;;;5054007;28;20505;-73
2022/01/31 06:45:12;;;;;;;54.47;22.40;;;3.90;99.90;;;;;;5072028;28;20056;-74
2022/01/31 06:47:38;;;;;;;54.73;23.80;;;3.90;99.90;;;;;;5054171;28;20033;-73
2022/01/31 06:50:07;;;;;;;56.70;23.53;;;3.90;99.90;;;;;;5054812;28;20028;-73
2022/01/31 06:52:37;;;;;;;50.60;23.53;;;3.90;99.90;;;;;;5073914;28;20028;-73
2022/01/31 06:55:05;;;;;;;59.20;24.13;;;3.80;99.90;;;;;;5073426;28;20034;-73
2022/01/31 06:57:35;;;;;;;55.67;23.53;;;3.80;99.90;;;;;;5073718;28;20021;-73
2022/01/31 07:00:07;;;;;;;55.53;23.50;;;3.80;99.90;;;;;;5055775;28;20482;-73
2022/01/31 07:02:34;;;;;;;54.60;22.85;;;3.90;99.90;;;;;;5072473;28;20474;-73
2022/01/31 07:05:00;;;;;;;57.10;25.40;;;3.90;99.90;;;;;;5073723;28;20036;-73
2022/01/31 07:07:27;;;;;;;55.57;24.03;;;3.90;99.90;;;;;;5055552;28;20021;-74
2022/01/31 07:09:53;;;;;;;56.60;23.43;;;3.80;99.90;;;;;;5073782;28;20108;-73
2022/01/31 07:12:22;;;;;;;58.60;25.60;;;3.80;99.90;;;;;;5055515;28;20124;-74
2022/01/31 07:14:48;;;;;;;54.33;23.90;;;3.80;99.90;;;;;;5073020;28;20474;-74
2022/01/31 07:17:14;;;;;;;60.17;24.10;;;3.90;99.90;;;;;;5073396;28;20048;-73
2022/01/31 07:19:41;;;;;;;57.40;24.57;;;3.90;99.90;;;;;;5073461;28;20033;-74
2022/01/31 07:22:11;;;;;;;52.30;23.43;;;3.90;99.90;;;;;;5055567;28;20024;-73
2022/01/31 07:27:04;;;;;;;60.50;26.10;;;3.90;99.90;;;;;;5073282;28;20032;-73
2022/01/31 07:29:30;;;;;;;52.73;22.67;;;3.90;99.90;;;;;;5055368;28;20238;-74
2022/01/31 07:31:57;;;;;;;54.67;23.53;;;4.00;99.90;;;;;;5073929;28;20104;-73
2022/01/31 07:34:24;;;;;;;66.47;24.70;;;4.00;99.90;;;;;;5073599;28;20358;-77
2022/01/31 07:36:51;;;;;;;58.27;22.53;;;4.00;99.90;;;;;;5056128;28;20029;-77
2022/01/31 07:39:17;;;;;;;53.87;24.13;;;4.10;99.90;;;;;;5055820;28;20025;-77
2022/01/31 07:41:44;;;;;;;53.63;22.25;;;4.10;99.90;;;;;;5055879;28;20020;-77
2022/01/31 07:44:11;;;;;;;53.13;22.43;;;4.10;99.90;;;;;;5073606;28;20020;-77
2022/01/31 07:46:37;;;;;;;54.33;22.77;;;4.10;99.90;;;;;;5073741;28;20107;-77
2022/01/31 07:49:04;;;;;;;59.53;23.77;;;4.20;99.90;;;;;;5074171;28;20020;-77
2022/01/31 07:51:31;;;;;;;57.83;24.53;;;4.20;99.90;;;;;;5056088;28;20029;-78
2022/01/31 07:53:57;;;;;;;59.00;23.00;;;4.20;99.90;;;;;;5073367;28;20021;-77
2022/01/31 07:56:23;;;;;;;63.53;26.13;;;4.20;99.90;;;;;;5074093;28;20085;-77
2022/01/31 07:58:48;;;;;;;56.10;24.67;;;4.20;99.90;;;;;;5074091;28;20394;-77
2022/01/31 08:01:15;;;;;;;56.07;23.40;;;4.30;99.90;;;;;;5056000;28;20054;-78
2022/01/31 08:03:40;;;;;;;55.90;23.07;;;4.30;99.90;;;;;;5055976;28;20059;-77
2022/01/31 08:06:06;;;;;;;56.93;23.40;;;4.40;99.90;;;;;;5073730;28;20439;-77
2022/01/31 08:08:34;;;;;;;63.10;25.67;;;4.40;99.90;;;;;;5073650;28;20037;-77
2022/01/31 08:11:02;;;;;;;73.50;31.57;;;4.40;99.90;;;;;;5073294;28;20504;-78
2022/01/31 08:13:28;;;;;;;67.43;30.93;;;4.40;99.90;;;;;;5071328;28;20486;-77
2022/01/31 08:18:33;;;;;;;65.03;30.50;;;4.50;99.90;;;;;;5093701;28;20032;-77
2022/01/31 08:21:00;;;;;;;70.00;31.37;;;4.50;99.90;;;;;;5093631;28;20107;-77
2022/01/31 08:23:26;;;;;;;70.65;30.85;;;4.50;99.90;;;;;;5075577;28;20427;-78
2022/01/31 08:25:52;;;;;;;74.22;31.50;;;4.50;99.90;;;;;;5093501;28;20111;-78
2022/01/31 08:28:21;;;;;;;69.82;30.63;;;4.50;99.90;;;;;;5093737;28;20012;-77
2022/01/31 08:33:25;;;;;;;68.18;27.55;;;4.60;99.90;;;;;;5093681;28;20031;-78
2022/01/31 08:35:52;;;;;;;63.88;26.55;;;4.60;99.90;;;;;;5092089;28;20035;-78
2022/01/31 08:38:19;;;;;;;68.65;26.08;;;4.60;99.90;;;;;;5073107;28;20101;-77
2022/01/31 08:40:45;;;;;;;65.35;25.92;;;4.70;99.90;;;;;;5078103;28;20032;-77
2022/01/31 08:43:14;;;;;;;55.45;23.88;;;4.70;99.90;;;;;;5093451;28;20028;-77
2022/01/31 08:45:40;;;;;;;56.90;26.55;;;4.70;99.90;;;;;;5093385;28;20027;-77
2022/01/31 08:48:06;;;;;;;56.35;23.52;;;4.80;99.90;;;;;;5093506;28;20015;-77
2022/01/31 08:50:32;;;;;;;55.47;23.73;;;4.80;99.90;;;;;;5092260;28;20073;-77
2022/01/31 08:52:58;;;;;;;62.15;26.60;;;4.80;99.90;;;;;;5073772;28;20024;-77
2022/01/31 08:55:25;;;;;;;58.22;25.60;;;4.80;99.90;;;;;;5091799;28;20106;-77
2022/01/31 08:57:54;;;;;;;62.38;27.00;;;4.80;99.90;;;;;;5091891;28;20500;-77
2022/01/31 09:00:21;;;;;;;60.17;26.48;;;4.80;99.90;;;;;;5091422;28;20035;-77
2022/01/31 09:03:04;;;;;;;58.20;26.55;;;4.80;99.90;;;;;;5054825;28;20029;-77
2022/01/31 09:05:29;;;;;;;67.72;26.98;;;4.80;99.90;;;;;;5070652;28;20094;-77
2022/01/31 09:07:55;;;;;;;67.65;27.92;;;4.90;99.90;;;;;;5071669;28;20466;-77
2022/01/31 09:10:21;;;;;;;89.78;37.47;;;4.90;99.90;;;;;;5071491;28;20033;-77
2022/01/31 09:12:47;;;;;;;73.05;30.85;;;4.90;99.90;;;;;;5071498;28;20095;-77
2022/01/31 09:15:13;;;;;;;63.70;26.23;;;4.90;99.90;;;;;;5071470;28;20029;-76
2022/01/31 09:17:42;;;;;;;61.20;25.25;;;5.00;99.90;;;;;;5072052;28;20080;-77
2022/01/31 09:20:08;;;;;;;62.28;25.63;;;5.00;99.90;;;;;;5054308;28;20028;-77
2022/01/31 09:22:34;;;;;;;64.78;25.02;;;5.00;99.90;;;;;;5053830;28;20040;-77
2022/01/31 09:25:00;;;;;;;72.05;27.55;;;5.10;99.90;;;;;;5072130;28;20028;-78
2022/01/31 09:27:27;;;;;;;69.15;27.02;;;5.10;99.90;;;;;;5071625;28;20033;-77
2022/01/31 09:29:53;;;;;;;86.28;29.98;;;5.10;99.90;;;;;;5071098;28;20350;-77
2022/01/31 09:32:23;;;;;;;76.25;29.75;;;5.20;99.90;;;;;;5071515;28;20029;-77
2022/01/31 09:34:49;;;;;;;77.95;32.50;;;5.20;99.90;;;;;;5071352;28;20107;-77
2022/01/31 09:37:15;;;;;;;84.70;31.95;;;5.30;99.90;;;;;;5053185;28;20028;-77
2022/01/31 09:39:43;;;;;;;76.30;31.77;;;5.30;99.90;;;;;;5053026;28;20082;-77
2022/01/31 09:42:12;;;;;;;87.65;33.00;;;5.40;99.90;;;;;;5053453;28;20020;-77
2022/01/31 09:49:43;;;;;;;87.25;34.85;;;5.70;99.90;;;;;;5071386;28;20120;-77
2022/01/31 09:52:09;;;;;;;89.80;35.70;;;5.70;99.90;;;;;;5071220;28;20103;-77
2022/01/31 09:54:34;;;;;;;95.72;38.20;;;5.80;99.90;;;;;;5071032;28;20131;-77
2022/01/31 09:57:00;;;;;;;102.90;41.53;;;5.80;99.90;;;;;;5053185;28;20028;-77
2022/01/31 09:59:26;;;;;;;111.68;45.85;;;5.80;99.90;;;;;;5070903;28;20024;-77
2022/01/31 10:01:54;;;;;;;101.70;40.28;;;5.80;99.90;;;;;;5071020;28;20017;-77
2022/01/31 10:04:30;;;;;;;90.90;36.10;;;5.80;99.90;;;;;;5071030;28;20009;-77
2022/01/31 10:06:57;;;;;;;88.68;37.35;;;5.80;99.90;;;;;;5053021;28;20032;-77
2022/01/31 10:09:27;;;;;;;98.68;38.28;;;5.80;99.90;;;;;;5071221;28;20031;-77
2022/01/31 10:12:09;;;;;;;95.00;38.13;;;5.90;99.90;;;;;;5071231;28;20485;-77
2022/01/31 10:17:32;;;;;;;90.20;38.00;;;5.90;99.90;;;;;;5083704;28;20131;-77
2022/01/31 10:20:00;;;;;;;81.13;35.47;;;5.90;99.90;;;;;;5094969;28;20028;-77
2022/01/31 10:22:29;;;;;;;90.18;36.75;;;5.90;99.90;;;;;;5094998;28;20020;-77
2022/01/31 10:24:58;;;;;;;84.88;36.03;;;6.00;99.90;;;;;;5094849;28;20024;-77
2022/01/31 10:27:31;;;;;;;97.35;38.60;;;6.10;99.90;;;;;;5094663;28;20108;-77
2022/01/31 10:30:10;;;;;;;87.65;37.08;;;6.10;99.90;;;;;;5076631;28;20024;-78
2022/01/31 10:32:39;;;;;;;91.40;37.63;;;6.10;99.90;;;;;;5073732;28;20025;-77
2022/01/31 10:35:08;;;;;;;87.05;37.70;;;6.10;99.90;;;;;;5074281;28;20031;-77
2022/01/31 10:37:36;;;;;;;83.53;36.10;;;6.20;99.90;;;;;;5074423;28;20024;-77
2022/01/31 10:54:05;;;;;;;79.00;34.63;;;6.40;99.90;;;;;;5094335;28;20055;-77
2022/01/31 10:56:58;;;;;;;85.55;33.85;;;6.50;99.90;;;;;;5094101;28;20024;-77
2022/01/31 11:00:00;;;;;;;83.50;33.25;;;6.60;99.90;;;;;;5061013;28;20036;-77
2022/01/31 11:02:27;;;;;;;81.50;32.58;;;6.70;99.90;;;;;;5054015;28;20119;-77
2022/01/31 11:04:53;;;;;;;76.60;32.60;;;6.90;99.90;;;;;;5055654;28;20021;-78
2022/01/31 11:07:22;;;;;;;84.65;32.08;;;6.90;99.90;;;;;;5073771;28;20032;-77
2022/01/31 11:09:49;;;;;;;75.60;32.97;;;7.00;99.90;;;;;;5073790;28;20100;-77
2022/01/31 11:12:16;;;;;;;80.50;32.17;;;7.00;99.90;;;;;;5055740;28;20386;-77
2022/01/31 11:14:44;;;;;;;71.38;32.47;;;7.10;99.90;;;;;;5055547;28;20035;-77
2022/01/31 11:17:13;;;;;;;87.32;33.67;;;7.20;99.90;;;;;;5073350;28;20045;-77
2022/01/31 11:19:42;;;;;;;86.25;34.33;;;7.30;99.90;;;;;;5073669;28;20020;-77
2022/01/31 11:22:12;;;;;;;83.03;35.05;;;7.50;99.90;;;;;;5073672;28;20028;-77
2022/01/31 11:24:44;;;;;;;81.32;35.72;;;7.60;99.90;;;;;;5055379;28;20486;-77
2022/01/31 11:27:18;;;;;;;88.93;34.00;;;7.60;99.90;;;;;;5055606;28;20051;-77
2022/01/31 11:29:47;;;;;;;73.05;33.45;;;7.70;99.90;;;;;;5072378;28;20028;-77
2022/01/31 11:32:13;;;;;;;79.22;35.05;;;7.80;99.90;;;;;;5055387;28;20502;-77
2022/01/31 11:34:43;;;;;;;73.20;32.70;;;7.80;99.90;;;;;;5055158;28;20039;-77
2022/01/31 11:37:10;;;;;;;77.60;32.80;;;7.80;99.90;;;;;;5055216;28;20029;-77
2022/01/31 11:39:38;;;;;;;75.43;33.58;;;7.80;99.90;;;;;;5072935;28;20021;-77
2022/01/31 11:42:06;;;;;;;78.00;31.90;;;7.90;99.90;;;;;;5073201;28;20020;-77
2022/01/31 11:44:47;;;;;;;71.10;31.75;;;7.90;99.90;;;;;;5055190;28;20398;-78
2022/01/31 11:47:13;;;;;;;73.78;31.67;;;8.00;99.90;;;;;;5073010;28;20028;-77
2022/01/31 11:49:59;;;;;;;77.30;32.30;;;8.00;99.90;;;;;;5072965;28;20029;-77
2022/01/31 11:52:30;;;;;;;73.90;33.35;;;8.00;99.90;;;;;;5054898;28;20115;-77
2022/01/31 11:55:00;;;;;;;74.20;32.15;;;8.00;99.90;;;;;;5072886;28;20084;-77
2022/01/31 11:57:28;;;;;;;73.55;31.45;;;8.00;99.90;;;;;;5072868;28;20551;-76
2022/01/31 12:00:08;;;;;;;76.50;33.78;;;8.00;99.90;;;;;;5054763;28;20107;-77
2022/01/31 12:02:47;;;;;;;70.78;31.67;;;8.00;99.90;;;;;;5072657;28;20490;-77
2022/01/31 12:05:21;;;;;;;79.18;32.72;;;7.90;99.90;;;;;;5072590;28;20025;-77
2022/01/31 12:07:59;;;;;;;74.25;32.55;;;7.90;99.90;;;;;;5055169;28;20024;-76
2022/01/31 12:10:31;;;;;;;79.18;32.38;;;7.90;99.90;;;;;;5072685;28;20077;-77
2022/01/31 12:13:03;;;;;;;76.20;32.95;;;7.90;99.90;;;;;;5072890;28;20078;-76
2022/01/31 12:15:44;;;;;;;68.20;30.88;;;7.90;99.90;;;;;;5072795;28;20016;-77
2022/01/31 12:23:40;;;;;;;78.90;31.70;;;7.90;99.90;;;;;;5073904;28;20444;-77
2022/01/31 12:26:28;;;;;;;80.00;31.15;;;7.90;99.90;;;;;;5073827;28;20111;-76
2022/01/31 12:28:59;;;;;;;70.53;31.20;;;8.00;99.90;;;;;;5066589;28;20082;-77
2022/01/31 12:31:34;;;;;;;72.43;32.67;;;8.00;99.90;;;;;;5072159;28;20020;-77
2022/01/31 12:34:01;;;;;;;74.57;33.20;;;7.90;99.90;;;;;;5066438;28;20074;-74
2022/01/31 12:36:36;;;;;;;79.18;34.35;;;7.80;99.90;;;;;;5070492;28;20063;-74
2022/01/31 12:39:31;;;;;;;78.65;33.35;;;7.90;99.90;;;;;;5067702;28;20025;-74
2022/01/31 12:42:03;;;;;;;82.57;34.80;;;7.80;99.90;;;;;;5058509;28;20122;-77
2022/01/31 12:44:31;;;;;;;71.43;33.53;;;7.80;99.90;;;;;;5061012;28;20060;-76
2022/01/31 12:47:14;;;;;;;83.57;32.78;;;7.80;99.90;;;;;;5060163;28;20103;-77
2022/01/31 12:49:44;;;;;;;77.07;32.63;;;7.90;99.90;;;;;;5061641;28;20096;-77
2022/01/31 12:52:11;;;;;;;80.95;33.80;;;7.80;99.90;;;;;;5062077;28;20024;-77
2022/01/31 12:54:39;;;;;;;81.50;33.05;;;7.90;99.90;;;;;;5051459;28;20083;-77
2022/01/31 12:57:07;;;;;;;73.65;34.03;;;7.90;99.90;;;;;;5055984;28;20219;-77
2022/01/31 12:59:33;;;;;;;81.63;35.25;;;7.90;99.90;;;;;;5059484;28;20033;-77
2022/01/31 13:02:04;;;;;;;80.25;33.50;;;7.90;99.90;;;;;;5058953;28;20508;-77
2022/01/31 13:04:30;;;;;;;79.72;34.40;;;7.80;99.90;;;;;;5059972;28;20025;-77
2022/01/31 13:06:59;;;;;;;80.68;34.85;;;7.90;99.90;;;;;;5071624;28;20107;-76
2022/01/31 13:09:26;;;;;;;75.47;33.13;;;7.90;99.90;;;;;;5062718;28;20572;-77
2022/01/31 13:12:04;;;;;;;76.22;34.20;;;7.90;99.90;;;;;;5071614;28;20103;-77
2022/01/31 13:14:35;;;;;;;89.85;36.22;;;7.90;99.90;;;;;;5071528;28;20103;-77
2022/01/31 13:17:11;;;;;;;81.70;37.88;;;7.90;99.90;;;;;;5071419;28;20580;-77
2022/01/31 13:19:39;;;;;;;95.68;36.72;;;7.90;99.90;;;;;;5071506;28;20108;-77
2022/01/31 13:22:09;;;;;;;79.55;34.42;;;7.80;99.90;;;;;;5071228;28;20028;-77